createdAt,value
2022-09-17T00:01:08.169Z,21.68
2022-09-17T00:03:35.729Z,21.84
2022-09-17T00:06:07.987Z,21.87
2022-09-17T00:08:36.776Z,21.78
2022-09-17T00:11:21.184Z,21.89
2022-09-17T00:13:49.861Z,21.90
2022-09-17T00:16:26.596Z,21.96
2022-09-17T00:18:54.331Z,22.03
2022-09-17T00:21:21.574Z,22.05
2022-09-17T00:23:48.847Z,21.92
2022-09-17T00:26:15.973Z,21.90
2022-09-17T00:28:45.542Z,21.89
2022-09-17T00:31:12.641Z,21.37
2022-09-17T00:33:39.820Z,21.17
2022-09-17T00:36:07.197Z,21.34
2022-09-17T00:38:34.457Z,21.21
2022-09-17T00:41:02.348Z,21.33
2022-09-17T00:43:45.115Z,20.92
2022-09-17T00:46:26.681Z,20.82
2022-09-17T00:48:58.624Z,20.96
2022-09-17T00:51:36.179Z,20.20
2022-09-17T00:54:06.736Z,20.04
2022-09-17T00:56:38.950Z,20.29
2022-09-17T00:59:07.644Z,20.61
2022-09-17T01:01:34.548Z,20.75
2022-09-17T01:04:01.686Z,20.58
2022-09-17T01:06:34.578Z,20.41
2022-09-17T01:09:16.855Z,20.08
2022-09-17T01:11:43.781Z,20.04
2022-09-17T01:14:13.372Z,20.16
2022-09-17T01:16:46.506Z,19.87
2022-09-17T01:19:57.019Z,19.94
2022-09-17T01:22:34.234Z,20.33
2022-09-17T01:25:33.144Z,20.77
2022-09-17T01:28:00.060Z,20.84
2022-09-17T01:30:35.947Z,20.67
2022-09-17T01:33:30.574Z,21.00
2022-09-17T01:36:52.980Z,21.07
2022-09-17T01:39:43.754Z,21.24
2022-09-17T01:42:24.456Z,21.19
2022-09-17T01:45:05.410Z,21.27
2022-09-17T01:47:38.900Z,21.46
2022-09-17T01:50:12.977Z,21.61
2022-09-17T01:52:44.241Z,21.89
2022-09-17T01:55:19.856Z,22.40
2022-09-17T01:58:26.143Z,22.31
2022-09-17T02:00:57.547Z,22.52
2022-09-17T02:03:35.218Z,22.15
2022-09-17T02:06:11.035Z,22.33
2022-09-17T02:08:57.377Z,22.51
2022-09-17T02:11:24.893Z,22.58
2022-09-17T02:14:10.362Z,22.24
2022-09-17T02:16:44.986Z,21.78
2022-09-17T02:19:34.999Z,22.09
2022-09-17T02:22:12.463Z,21.93
2022-09-17T02:24:48.219Z,22.04
2022-09-17T02:27:39.037Z,22.12
2022-09-17T02:30:06.921Z,21.93
2022-09-17T02:32:33.928Z,21.96
2022-09-17T02:35:00.954Z,21.39
2022-09-17T02:37:27.977Z,20.96
2022-09-17T02:39:55.345Z,20.78
2022-09-17T02:42:47.347Z,20.60
2022-09-17T02:45:24.109Z,20.47
2022-09-17T02:48:02.718Z,20.22
2022-09-17T02:50:47.723Z,20.34
2022-09-17T02:53:26.914Z,20.48
2022-09-17T02:56:18.195Z,20.70
2022-09-17T02:58:53.787Z,20.83
2022-09-17T03:01:51.120Z,20.68
2022-09-17T03:04:21.197Z,20.80
2022-09-17T03:06:52.549Z,20.93
2022-09-17T03:09:19.704Z,20.89
2022-09-17T03:11:47.013Z,21.06
2022-09-17T03:14:13.960Z,20.95
2022-09-17T03:16:40.851Z,21.11
2022-09-17T03:19:08.202Z,21.12
2022-09-17T03:21:35.176Z,21.05
2022-09-17T03:24:02.272Z,21.06
2022-09-17T03:26:29.125Z,21.13
2022-09-17T03:28:56.319Z,21.03
2022-09-17T03:31:23.217Z,20.69
2022-09-17T03:33:50.346Z,20.50
2022-09-17T03:36:17.306Z,20.68
2022-09-17T03:38:44.178Z,20.44
2022-09-17T03:41:11.496Z,20.29
2022-09-17T03:43:39.923Z,20.71
2022-09-17T03:46:07.039Z,20.69
2022-09-17T03:48:37.305Z,20.54
2022-09-17T03:51:04.737Z,20.83
2022-09-17T03:53:32.617Z,20.75
2022-09-17T03:56:01.710Z,20.72
2022-09-17T03:58:30.136Z,20.58
2022-09-17T04:00:58.149Z,20.69
2022-09-17T04:03:26.743Z,20.59
2022-09-17T04:05:54.261Z,20.60
2022-09-17T04:08:21.682Z,20.72
2022-09-17T04:10:49.099Z,20.74
2022-09-17T04:13:17.168Z,20.99
2022-09-17T04:15:45.504Z,21.03
2022-09-17T04:18:13.254Z,21.13
2022-09-17T04:20:40.572Z,21.20
2022-09-17T04:23:07.624Z,21.09
2022-09-17T04:25:34.469Z,20.95
2022-09-17T04:28:01.507Z,21.03
2022-09-17T04:30:28.392Z,21.31
2022-09-17T04:32:55.263Z,21.30
2022-09-17T04:35:22.324Z,21.19
2022-09-17T04:37:53.608Z,21.51
2022-09-17T04:40:20.733Z,21.97
2022-09-17T04:42:47.651Z,22.36
2022-09-17T04:45:14.801Z,23.04
2022-09-17T04:47:41.665Z,23.23
2022-09-17T04:50:08.963Z,23.08
2022-09-17T04:52:35.826Z,23.22
2022-09-17T04:55:02.742Z,23.68
2022-09-17T04:57:29.606Z,24.06
2022-09-17T04:59:56.490Z,24.41
2022-09-17T05:02:23.571Z,25.44
2022-09-17T05:04:50.866Z,26.41
2022-09-17T05:07:17.760Z,26.94
2022-09-17T05:09:44.710Z,27.97
2022-09-17T05:12:11.578Z,28.69
2022-09-17T05:14:38.560Z,30.06
2022-09-17T05:17:05.518Z,30.58
2022-09-17T05:19:32.748Z,31.88
2022-09-17T05:21:59.603Z,31.52
2022-09-17T05:24:27.477Z,32.07
2022-09-17T05:26:54.443Z,31.70
2022-09-17T05:29:21.443Z,32.57
2022-09-17T05:31:48.382Z,34.34
2022-09-17T05:34:15.321Z,35.33
2022-09-17T05:36:42.217Z,35.95
2022-09-17T05:39:09.409Z,35.22
2022-09-17T05:41:36.268Z,34.96
2022-09-17T05:44:03.446Z,35.13
2022-09-17T05:46:30.402Z,32.91
2022-09-17T05:48:58.075Z,31.89
2022-09-17T05:51:25.376Z,33.82
2022-09-17T05:53:55.066Z,35.12
2022-09-17T05:56:22.310Z,35.92
2022-09-17T05:58:49.380Z,34.68
2022-09-17T06:01:16.478Z,32.76
2022-09-17T06:03:43.350Z,31.69
2022-09-17T06:06:10.975Z,31.61
2022-09-17T06:08:37.814Z,32.08
2022-09-17T06:11:06.032Z,33.77
2022-09-17T06:13:33.726Z,34.61
2022-09-17T06:16:01.894Z,35.84
2022-09-17T06:18:32.347Z,37.44
2022-09-17T06:21:01.666Z,38.06
2022-09-17T06:23:35.250Z,38.08
2022-09-17T06:26:03.362Z,38.84
2022-09-17T06:28:30.559Z,39.72
2022-09-17T06:31:04.757Z,40.27
2022-09-17T06:33:32.990Z,39.29
2022-09-17T06:36:01.753Z,39.16
2022-09-17T06:38:29.688Z,38.97
2022-09-17T06:40:56.765Z,38.01
2022-09-17T06:43:24.395Z,37.32
2022-09-17T06:45:59.452Z,36.86
2022-09-17T06:48:28.051Z,37.34
2022-09-17T06:50:55.119Z,37.04
2022-09-17T06:53:23.600Z,37.38
2022-09-17T06:55:50.905Z,38.04
2022-09-17T06:58:17.956Z,37.81
2022-09-17T07:00:45.111Z,37.42
2022-09-17T07:03:13.745Z,39.11
2022-09-17T07:05:43.908Z,38.67
2022-09-17T07:08:11.204Z,39.01
2022-09-17T07:10:38.099Z,38.35
2022-09-17T07:13:05.035Z,38.09
2022-09-17T07:15:32.670Z,38.55
2022-09-17T07:17:59.639Z,37.80
2022-09-17T07:20:26.498Z,36.82
2022-09-17T07:22:57.680Z,37.41
2022-09-17T07:25:26.730Z,37.29
2022-09-17T07:27:53.997Z,36.53
2022-09-17T07:30:21.326Z,36.16
2022-09-17T07:32:48.437Z,36.70
2022-09-17T07:35:15.572Z,36.10
2022-09-17T07:37:42.536Z,36.45
2022-09-17T07:40:09.603Z,37.01
2022-09-17T07:42:36.499Z,36.23
2022-09-17T07:45:03.561Z,37.17
2022-09-17T07:47:30.453Z,38.62
2022-09-17T07:49:57.863Z,37.95
2022-09-17T07:52:24.841Z,37.77
2022-09-17T07:54:51.737Z,35.11
2022-09-17T07:57:18.627Z,36.51
2022-09-17T07:59:45.495Z,36.25
2022-09-17T08:02:14.442Z,36.38
2022-09-17T08:04:44.183Z,36.85
2022-09-17T08:07:13.597Z,38.03
2022-09-17T08:09:40.522Z,36.73
2022-09-17T08:12:07.867Z,35.84
2022-09-17T08:14:34.726Z,36.03
2022-09-17T08:17:01.617Z,37.10
2022-09-17T08:19:32.951Z,37.38
2022-09-17T08:21:59.914Z,36.16
2022-09-17T08:24:27.744Z,36.22
2022-09-17T08:26:54.715Z,35.61
2022-09-17T08:29:21.564Z,35.43
2022-09-17T08:31:48.562Z,34.84
2022-09-17T08:34:15.615Z,35.91
2022-09-17T08:36:42.549Z,36.21
2022-09-17T08:39:11.230Z,36.21
2022-09-17T08:41:55.406Z,35.05
2022-09-17T08:44:39.931Z,35.13
2022-09-17T08:47:31.204Z,34.10
2022-09-17T08:50:00.730Z,33.56
2022-09-17T08:53:05.154Z,32.99
2022-09-17T08:55:41.296Z,32.94
2022-09-17T08:58:20.216Z,33.06
2022-09-17T09:01:05.786Z,33.95
2022-09-17T09:04:00.423Z,33.59
2022-09-17T09:06:32.833Z,33.88
2022-09-17T09:09:21.274Z,33.52
2022-09-17T09:11:50.353Z,34.20
2022-09-17T09:14:26.495Z,33.93
2022-09-17T09:16:56.534Z,33.91
2022-09-17T09:19:30.437Z,34.26
2022-09-17T09:22:20.201Z,34.16
2022-09-17T09:25:23.323Z,32.66
2022-09-17T09:28:36.782Z,33.10
2022-09-17T09:31:09.721Z,32.29
2022-09-17T09:33:41.613Z,32.79
2022-09-17T09:36:16.050Z,32.54
2022-09-17T09:38:58.999Z,33.92
2022-09-17T09:41:45.444Z,33.30
2022-09-17T09:44:15.605Z,33.01
2022-09-17T09:46:48.477Z,34.43
2022-09-17T09:50:04.499Z,34.71
2022-09-17T09:53:11.519Z,33.91
2022-09-17T09:56:15.849Z,33.08
2022-09-17T09:58:43.061Z,33.29
2022-09-17T10:01:20.671Z,31.75
2022-09-17T10:03:49.095Z,32.52
2022-09-17T10:06:17.058Z,32.36
2022-09-17T10:08:55.905Z,33.41
2022-09-17T10:11:33.154Z,33.91
2022-09-17T10:14:32.055Z,34.70
2022-09-17T10:17:22.103Z,35.34
2022-09-17T10:20:12.127Z,35.52
2022-09-17T10:22:44.781Z,34.62
2022-09-17T10:25:42.770Z,35.44
2022-09-17T10:28:50.538Z,36.25
2022-09-17T10:31:17.691Z,35.07
2022-09-17T10:33:59.383Z,35.51
2022-09-17T10:36:40.462Z,34.50
2022-09-17T10:39:26.798Z,34.38
2022-09-17T10:41:59.198Z,33.39
2022-09-17T10:44:28.882Z,33.46
2022-09-17T10:47:01.676Z,32.68
2022-09-17T10:49:48.708Z,32.62
2022-09-17T10:52:28.195Z,33.38
2022-09-17T10:55:21.082Z,32.59
2022-09-17T10:58:04.178Z,34.20
2022-09-17T11:01:12.856Z,34.88
2022-09-17T11:03:56.584Z,35.27
2022-09-17T11:06:23.502Z,35.85
2022-09-17T11:09:19.296Z,36.59
2022-09-17T11:11:49.184Z,36.98
2022-09-17T11:14:16.053Z,35.96
2022-09-17T11:16:53.644Z,35.40
2022-09-17T11:19:48.450Z,34.73
2022-09-17T11:22:30.457Z,34.85
2022-09-17T11:25:18.753Z,34.99
2022-09-17T11:28:10.104Z,35.42
2022-09-17T11:31:07.607Z,33.97
2022-09-17T11:33:47.193Z,35.11
2022-09-17T11:36:28.003Z,35.12
2022-09-17T11:38:59.811Z,34.63
2022-09-17T11:41:36.313Z,34.51
2022-09-17T11:44:25.843Z,34.05
2022-09-17T11:47:17.520Z,33.87
2022-09-17T11:49:55.831Z,34.48
2022-09-17T11:53:16.325Z,35.28
2022-09-17T11:55:51.387Z,34.91
2022-09-17T11:58:27.151Z,34.71
2022-09-17T12:01:06.099Z,35.25
2022-09-17T12:04:11.059Z,35.44
2022-09-17T12:06:49.358Z,35.25
2022-09-17T12:09:26.148Z,35.68
2022-09-17T12:12:02.887Z,35.33
2022-09-17T12:14:54.165Z,36.02
2022-09-17T12:17:28.558Z,35.77
2022-09-17T12:20:01.852Z,35.10
2022-09-17T12:22:35.976Z,33.49
2022-09-17T12:25:06.766Z,32.73
2022-09-17T12:27:39.303Z,33.55
2022-09-17T12:30:22.410Z,33.52
2022-09-17T12:33:19.289Z,33.39
2022-09-17T12:36:16.151Z,33.48
2022-09-17T12:39:02.622Z,32.89
2022-09-17T12:41:32.876Z,32.28
2022-09-17T12:44:02.517Z,32.05
2022-09-17T12:46:54.086Z,32.43
2022-09-17T12:49:42.537Z,32.38
2022-09-17T12:52:52.756Z,32.20
2022-09-17T12:55:36.398Z,31.61
2022-09-17T12:58:20.456Z,31.13
2022-09-17T13:01:04.113Z,30.60
2022-09-17T13:03:41.410Z,30.35
2022-09-17T13:06:26.653Z,30.94
2022-09-17T13:09:34.963Z,30.29
2022-09-17T13:12:18.106Z,30.05
2022-09-17T13:15:17.661Z,31.13
2022-09-17T13:18:27.123Z,30.68
2022-09-17T13:21:36.250Z,30.35
2022-09-17T13:24:18.150Z,30.13
2022-09-17T13:26:46.181Z,30.04
2022-09-17T13:29:33.502Z,30.10
2022-09-17T13:32:00.422Z,30.19
2022-09-17T13:34:30.430Z,30.35
2022-09-17T13:37:04.950Z,29.66
2022-09-17T13:39:43.835Z,28.98
2022-09-17T13:42:16.147Z,26.79
2022-09-17T13:44:49.585Z,24.61
2022-09-17T13:47:22.523Z,23.10
2022-09-17T13:49:57.645Z,23.12
2022-09-17T13:52:39.791Z,23.49
2022-09-17T13:55:08.958Z,23.85
2022-09-17T13:57:48.501Z,24.09
2022-09-17T14:00:49.657Z,24.25
2022-09-17T14:03:31.611Z,24.37
2022-09-17T14:06:19.527Z,24.45
2022-09-17T14:08:58.616Z,24.43
2022-09-17T14:11:32.432Z,24.52
2022-09-17T14:13:59.442Z,24.52
2022-09-17T14:16:35.891Z,24.52
2022-09-17T14:19:28.005Z,24.39
2022-09-17T14:21:59.686Z,23.94
2022-09-17T14:24:44.445Z,23.86
2022-09-17T14:27:39.963Z,23.66
2022-09-17T14:30:20.693Z,23.77
2022-09-17T14:33:02.737Z,23.72
2022-09-17T14:35:42.557Z,23.48
2022-09-17T14:38:20.202Z,23.53
2022-09-17T14:40:53.517Z,23.60
2022-09-17T14:43:25.404Z,23.50
2022-09-17T14:45:53.724Z,23.68
2022-09-17T14:48:47.020Z,23.54
2022-09-17T14:51:22.355Z,23.53
2022-09-17T14:54:06.179Z,22.97
2022-09-17T14:56:36.830Z,23.13
2022-09-17T14:59:03.784Z,22.40
2022-09-17T15:01:31.543Z,22.74
2022-09-17T15:04:13.453Z,23.09
2022-09-17T15:06:42.128Z,23.02
2022-09-17T15:09:16.939Z,22.94
2022-09-17T15:11:45.384Z,22.39
2022-09-17T15:14:18.836Z,22.59
2022-09-17T15:16:51.789Z,22.90
2022-09-17T15:19:28.312Z,23.17
2022-09-17T15:21:57.634Z,22.73
2022-09-17T15:24:36.530Z,23.12
2022-09-17T15:27:12.533Z,22.99
2022-09-17T15:29:44.751Z,23.45
2022-09-17T15:32:15.037Z,23.55
2022-09-17T15:34:42.499Z,23.62
2022-09-17T15:37:19.488Z,23.77
2022-09-17T15:39:52.267Z,23.97
2022-09-17T15:42:28.022Z,24.26
2022-09-17T15:45:27.642Z,24.64
2022-09-17T15:47:56.770Z,24.86
2022-09-17T15:50:25.994Z,24.26
2022-09-17T15:53:11.084Z,24.17
2022-09-17T15:55:45.758Z,24.12
2022-09-17T15:58:41.725Z,24.08
2022-09-17T16:01:14.903Z,23.29
2022-09-17T16:03:44.658Z,23.05
2022-09-17T16:06:25.471Z,22.88
2022-09-17T16:08:53.498Z,23.30
2022-09-17T16:11:23.181Z,23.36
2022-09-17T16:13:51.635Z,23.15
2022-09-17T16:16:21.341Z,23.40
2022-09-17T16:18:49.377Z,23.30
2022-09-17T16:21:18.614Z,23.46
2022-09-17T16:23:46.120Z,22.95
2022-09-17T16:26:18.334Z,22.94
2022-09-17T16:28:53.656Z,23.00
2022-09-17T16:31:21.335Z,22.88
2022-09-17T16:33:48.380Z,23.13
2022-09-17T16:36:18.907Z,23.16
2022-09-17T16:38:45.756Z,23.28
2022-09-17T16:41:12.837Z,23.14
2022-09-17T16:43:40.466Z,23.24
2022-09-17T16:46:10.904Z,23.25
2022-09-17T16:48:38.472Z,22.84
2022-09-17T16:51:09.598Z,22.68
2022-09-17T16:53:36.830Z,22.53
2022-09-17T16:56:11.268Z,22.22
2022-09-17T16:58:38.733Z,22.57
2022-09-17T17:01:09.378Z,22.72
2022-09-17T17:03:36.669Z,23.00
2022-09-17T17:06:04.216Z,23.28
2022-09-17T17:08:34.688Z,22.67
2022-09-17T17:11:01.669Z,22.54
2022-09-17T17:13:28.925Z,22.45
2022-09-17T17:15:55.955Z,22.79
2022-09-17T17:18:23.051Z,22.77
2022-09-17T17:20:50.175Z,22.77
2022-09-17T17:23:17.317Z,22.87
2022-09-17T17:25:44.221Z,22.54
2022-09-17T17:28:11.245Z,22.34
2022-09-17T17:30:38.628Z,22.47
2022-09-17T17:33:05.682Z,22.11
2022-09-17T17:35:32.768Z,22.21
2022-09-17T17:37:59.705Z,21.81
2022-09-17T17:40:26.886Z,21.87
2022-09-17T17:42:54.408Z,21.99
2022-09-17T17:45:21.398Z,22.13
2022-09-17T17:47:48.588Z,22.21
2022-09-17T17:50:16.113Z,22.16
2022-09-17T17:52:48.001Z,22.27
2022-09-17T17:55:16.521Z,22.63
2022-09-17T17:57:43.433Z,21.98
2022-09-17T18:00:14.590Z,21.88
2022-09-17T18:02:42.080Z,22.11
2022-09-17T18:05:18.228Z,22.24
2022-09-17T18:07:45.240Z,22.21
2022-09-17T18:10:13.256Z,21.96
2022-09-17T18:12:40.271Z,22.10
2022-09-17T18:15:10.832Z,22.32
2022-09-17T18:17:37.822Z,22.30
2022-09-17T18:20:05.507Z,21.51
2022-09-17T18:22:32.430Z,21.37
2022-09-17T18:24:59.369Z,21.65
2022-09-17T18:27:26.316Z,21.75
2022-09-17T18:29:53.309Z,21.49
2022-09-17T18:32:20.197Z,21.37
2022-09-17T18:34:47.093Z,21.60
2022-09-17T18:37:14.102Z,21.56
2022-09-17T18:42:27.942Z,21.43
2022-09-17T18:44:55.069Z,20.89
2022-09-17T18:47:21.989Z,20.44
2022-09-17T18:49:49.215Z,20.60
2022-09-17T18:52:16.217Z,20.75
2022-09-17T18:54:46.001Z,20.87
2022-09-17T18:57:13.973Z,20.76
2022-09-17T18:59:40.866Z,20.67
2022-09-17T19:02:12.048Z,20.45
2022-09-17T19:04:39.488Z,20.39
2022-09-17T19:07:06.853Z,20.44
2022-09-17T19:09:33.764Z,20.57
2022-09-17T19:12:00.696Z,20.77
2022-09-17T19:14:27.642Z,21.09
2022-09-17T19:16:55.358Z,20.99
2022-09-17T19:19:22.472Z,21.12
2022-09-17T19:21:50.755Z,21.05
2022-09-17T19:24:18.287Z,21.19
2022-09-17T19:26:50.664Z,20.63
2022-09-17T19:29:17.848Z,20.01
2022-09-17T19:31:44.946Z,19.81
2022-09-17T19:34:11.852Z,19.68
2022-09-17T19:36:38.717Z,19.86
2022-09-17T19:39:05.651Z,20.15
2022-09-17T19:41:33.523Z,20.43
2022-09-17T19:44:00.439Z,20.82
2022-09-17T19:46:27.494Z,20.88
2022-09-17T19:48:56.369Z,20.91
2022-09-17T19:51:25.964Z,21.23
2022-09-17T19:53:53.042Z,21.25
2022-09-17T19:56:25.669Z,21.59
2022-09-17T19:58:53.003Z,21.84
2022-09-17T20:01:20.253Z,21.36
2022-09-17T20:03:47.641Z,21.23
2022-09-17T20:06:17.315Z,21.51
2022-09-17T20:08:48.906Z,21.49
2022-09-17T20:11:17.363Z,21.41
2022-09-17T20:13:44.674Z,21.25
2022-09-17T20:16:22.324Z,21.36
2022-09-17T20:18:50.107Z,21.38
2022-09-17T20:21:23.136Z,21.41
2022-09-17T20:23:50.112Z,21.72
2022-09-17T20:26:17.782Z,21.92
2022-09-17T20:28:45.076Z,21.71
2022-09-17T20:31:14.800Z,21.48
2022-09-17T20:33:42.422Z,21.30
2022-09-17T20:36:15.444Z,21.38
2022-09-17T20:39:11.375Z,21.46
2022-09-17T20:41:31.743Z,21.30
2022-09-17T20:43:58.899Z,20.78
2022-09-17T20:46:29.347Z,20.64
2022-09-17T20:48:58.386Z,20.80
2022-09-17T20:51:30.420Z,20.56
2022-09-17T20:53:57.858Z,20.32
2022-09-17T20:56:27.563Z,20.20
2022-09-17T20:59:29.353Z,20.13
2022-09-17T21:01:56.230Z,20.08
2022-09-17T21:04:24.223Z,20.40
2022-09-17T21:06:53.207Z,20.45
2022-09-17T21:09:20.315Z,20.46
2022-09-17T21:11:48.904Z,20.61
2022-09-17T21:14:17.549Z,20.57
2022-09-17T21:16:45.271Z,20.53
2022-09-17T21:19:13.363Z,20.52
2022-09-17T21:21:40.470Z,20.67
2022-09-17T21:24:10.265Z,20.89
2022-09-17T21:26:37.412Z,21.06
2022-09-17T21:29:04.370Z,21.09
2022-09-17T21:31:33.902Z,20.78
2022-09-17T21:34:03.748Z,20.89
2022-09-17T21:36:33.165Z,20.89
2022-09-17T21:39:02.867Z,20.52
2022-09-17T21:41:30.404Z,20.79
2022-09-17T21:43:57.940Z,21.37
2022-09-17T21:46:32.289Z,21.14
2022-09-17T21:49:02.357Z,20.59
2022-09-17T21:51:32.286Z,19.53
2022-09-17T21:54:01.429Z,18.98
2022-09-17T21:56:29.886Z,18.86
2022-09-17T21:58:59.217Z,19.10
2022-09-17T22:01:40.685Z,19.57
2022-09-17T22:04:13.381Z,19.56
2022-09-17T22:06:41.702Z,19.74
2022-09-17T22:09:14.757Z,20.18
2022-09-17T22:11:46.420Z,20.26
2022-09-17T22:14:19.764Z,20.52
2022-09-17T22:16:52.191Z,20.73
2022-09-17T22:19:20.606Z,20.33
2022-09-17T22:21:51.429Z,20.16
2022-09-17T22:24:20.421Z,19.30
2022-09-17T22:26:55.765Z,19.00
2022-09-17T22:29:24.697Z,19.78
2022-09-17T22:31:51.674Z,19.92
2022-09-17T22:34:23.186Z,19.20
2022-09-17T22:36:50.295Z,18.85
2022-09-17T22:39:19.186Z,18.73
2022-09-17T22:41:46.332Z,18.90
2022-09-17T22:44:16.780Z,19.66
2022-09-17T22:46:46.445Z,20.22
2022-09-17T22:49:14.569Z,20.48
2022-09-17T22:51:42.470Z,20.68
2022-09-17T22:54:16.005Z,20.69
2022-09-17T22:56:43.636Z,20.58
2022-09-17T22:59:10.582Z,20.66
2022-09-17T23:01:38.959Z,20.70
2022-09-17T23:04:06.470Z,20.96
2022-09-17T23:06:36.180Z,20.71
2022-09-17T23:09:03.561Z,21.08
2022-09-17T23:11:33.971Z,21.23
2022-09-17T23:14:03.238Z,21.12
2022-09-17T23:16:38.823Z,20.68
2022-09-17T23:19:05.971Z,20.27
2022-09-17T23:21:33.016Z,20.14
2022-09-17T23:24:00.185Z,18.96
2022-09-17T23:26:27.671Z,18.68
2022-09-17T23:28:55.264Z,19.37
2022-09-17T23:31:24.711Z,19.77
2022-09-17T23:33:52.211Z,20.01
2022-09-17T23:36:22.570Z,20.23
2022-09-17T23:38:49.823Z,20.38
2022-09-17T23:41:22.032Z,20.61
2022-09-17T23:43:54.495Z,20.41
2022-09-17T23:46:23.122Z,20.45
2022-09-17T23:48:51.813Z,20.55
2022-09-17T23:51:18.785Z,20.78
2022-09-17T23:53:45.818Z,21.00
2022-09-17T23:56:16.282Z,20.50
2022-09-17T23:58:43.216Z,20.68
